createdAt,value
2018-06-04T00:04:53.856Z,17.80
2018-06-04T00:09:50.607Z,17.70
2018-06-04T00:12:19.106Z,17.70
2018-06-04T00:17:15.719Z,17.60
2018-06-04T00:19:44.225Z,17.60
2018-06-04T00:22:12.791Z,17.60
2018-06-04T00:24:41.271Z,17.60
2018-06-04T00:27:09.784Z,17.50
2018-06-04T00:29:38.234Z,17.50
2018-06-04T00:32:06.801Z,17.40
2018-06-04T00:34:35.320Z,17.40
2018-06-04T00:37:03.792Z,17.40
2018-06-04T00:39:32.224Z,17.30
2018-06-04T00:42:00.691Z,17.30
2018-06-04T00:44:29.125Z,17.30
2018-06-04T00:49:25.753Z,17.20
2018-06-04T00:51:54.254Z,17.20
2018-06-04T00:54:23.523Z,17.20
2018-06-04T00:56:52.043Z,17.10
2018-06-04T00:59:20.494Z,17.00
2018-06-04T01:01:48.957Z,17.00
2018-06-04T01:04:17.410Z,16.90
2018-06-04T01:09:14.039Z,16.90
2018-06-04T01:11:42.521Z,16.90
2018-06-04T01:14:10.966Z,16.90
2018-06-04T01:16:39.453Z,16.80
2018-06-04T01:19:07.945Z,16.80
2018-06-04T01:21:36.489Z,16.80
2018-06-04T01:24:04.995Z,16.80
2018-06-04T01:29:01.609Z,16.70
2018-06-04T01:31:30.100Z,16.70
2018-06-04T01:33:58.610Z,16.70
2018-06-04T01:36:27.075Z,16.60
2018-06-04T01:38:55.543Z,16.70
2018-06-04T01:41:23.990Z,16.60
2018-06-04T01:43:52.514Z,16.60
2018-06-04T01:46:20.984Z,16.60
2018-06-04T01:48:49.465Z,16.50
2018-06-04T01:51:17.949Z,16.50
2018-06-04T01:53:46.422Z,16.50
2018-06-04T01:56:14.854Z,16.50
2018-06-04T01:58:43.328Z,16.50
2018-06-04T02:01:11.792Z,16.40
2018-06-04T02:03:40.288Z,16.40
2018-06-04T02:06:08.751Z,16.40
2018-06-04T02:08:37.184Z,16.40
2018-06-04T02:11:05.650Z,16.30
2018-06-04T02:13:34.080Z,16.40
2018-06-04T02:16:02.683Z,16.30
2018-06-04T02:18:31.164Z,16.30
2018-06-04T02:23:27.835Z,16.30
2018-06-04T02:28:24.573Z,16.20
2018-06-04T02:33:21.280Z,16.20
2018-06-04T02:35:49.788Z,16.20
2018-06-04T02:38:18.261Z,16.10
2018-06-04T02:40:46.731Z,16.10
2018-06-04T02:43:15.232Z,16.10
2018-06-04T02:45:43.675Z,16.10
2018-06-04T02:48:12.239Z,16.10
2018-06-04T02:50:40.727Z,16.10
2018-06-04T02:53:09.177Z,16.10
2018-06-04T02:55:37.711Z,16.10
2018-06-04T02:58:06.212Z,16.10
2018-06-04T03:03:02.829Z,16.10
2018-06-04T03:05:31.310Z,16.10
2018-06-04T03:07:59.823Z,16.10
2018-06-04T03:10:28.285Z,16.10
2018-06-04T03:12:56.784Z,16.10
2018-06-04T03:15:25.891Z,16.00
2018-06-04T03:17:54.459Z,16.00
2018-06-04T03:20:22.922Z,16.00
2018-06-04T03:22:51.400Z,16.00
2018-06-04T03:25:19.856Z,15.90
2018-06-04T03:32:44.643Z,15.90
2018-06-04T03:35:13.109Z,15.90
2018-06-04T03:37:41.565Z,15.90
2018-06-04T03:40:10.078Z,15.90
2018-06-04T03:42:38.535Z,16.00
2018-06-04T03:47:35.138Z,16.10
2018-06-04T03:50:03.662Z,16.10
2018-06-04T03:52:32.165Z,16.20
2018-06-04T03:55:00.620Z,16.20
2018-06-04T03:57:29.140Z,16.30
2018-06-04T03:59:57.617Z,16.30
2018-06-04T04:04:54.215Z,16.40
2018-06-04T04:07:22.719Z,16.50
2018-06-04T04:09:51.217Z,16.50
2018-06-04T04:12:19.696Z,16.60
2018-06-04T04:22:26.541Z,16.90
2018-06-04T04:24:55.046Z,17.00
2018-06-04T04:27:23.503Z,17.00
2018-06-04T04:29:51.971Z,17.00
2018-06-04T04:32:20.471Z,17.10
2018-06-04T04:34:48.926Z,17.20
2018-06-04T04:39:45.560Z,17.40
2018-06-04T04:42:14.010Z,17.60
2018-06-04T04:44:42.472Z,17.60
2018-06-04T04:47:10.969Z,17.70
2018-06-04T04:49:39.472Z,17.80
2018-06-04T04:52:08.098Z,17.90
2018-06-04T04:54:36.534Z,18.00
2018-06-04T04:57:05.029Z,18.10
2018-06-04T04:59:33.669Z,18.20
2018-06-04T05:02:02.323Z,18.30
2018-06-04T05:04:30.858Z,18.30
2018-06-04T05:06:59.281Z,18.40
2018-06-04T05:09:27.817Z,18.50
2018-06-04T05:11:56.300Z,18.50
2018-06-04T05:14:24.853Z,18.50
2018-06-04T05:16:53.306Z,18.60
2018-06-04T05:19:21.897Z,18.70
2018-06-04T05:21:50.381Z,18.80
2018-06-04T05:24:18.868Z,18.80
2018-06-04T05:26:47.429Z,18.90
2018-06-04T05:39:10.257Z,19.20
2018-06-04T05:46:41.538Z,19.30
2018-06-04T05:49:10.015Z,19.40
2018-06-04T05:51:38.521Z,19.40
2018-06-04T05:59:03.322Z,19.30
2018-06-04T06:01:31.822Z,19.30
2018-06-04T06:04:00.596Z,19.30
2018-06-04T06:06:29.061Z,19.40
2018-06-04T06:08:57.533Z,19.60
2018-06-04T06:11:25.971Z,19.70
2018-06-04T06:13:54.404Z,19.80
2018-06-04T06:16:22.859Z,19.90
2018-06-04T06:18:51.318Z,20.00
2018-06-04T06:21:20.683Z,20.10
2018-06-04T06:23:49.137Z,20.20
2018-06-04T06:31:13.887Z,20.30
2018-06-04T06:36:10.464Z,20.40
2018-06-04T06:38:38.915Z,20.40
2018-06-04T06:41:08.001Z,20.60
2018-06-04T06:43:36.584Z,20.60
2018-06-04T06:46:05.146Z,20.70
2018-06-04T06:48:33.619Z,20.70
2018-06-04T06:51:02.071Z,20.70
2018-06-04T06:53:30.539Z,20.90
2018-06-04T06:58:27.152Z,20.90
2018-06-04T07:00:55.741Z,21.00
2018-06-04T07:03:24.769Z,21.00
2018-06-04T07:05:53.197Z,21.10
2018-06-04T07:10:49.833Z,21.30
2018-06-04T07:13:18.298Z,21.40
2018-06-04T07:15:46.830Z,21.40
2018-06-04T07:20:43.490Z,21.60
2018-06-04T07:28:08.379Z,22.10
2018-06-04T07:30:36.863Z,22.20
2018-06-04T07:33:05.397Z,22.40
2018-06-04T07:35:33.853Z,22.40
2018-06-04T07:38:02.480Z,22.40
2018-06-04T07:42:59.157Z,22.30
2018-06-04T07:45:27.619Z,22.20
2018-06-04T07:47:56.123Z,22.20
2018-06-04T07:50:24.609Z,22.20
2018-06-04T07:55:21.365Z,22.20
2018-06-04T07:57:49.834Z,22.40
2018-06-04T08:00:18.323Z,22.50
2018-06-04T08:02:46.777Z,22.50
2018-06-04T08:05:15.243Z,22.60
2018-06-04T08:07:43.692Z,22.60
2018-06-04T08:10:12.175Z,22.80
2018-06-04T08:15:08.794Z,22.90
2018-06-04T08:17:37.254Z,23.00
2018-06-04T08:20:05.751Z,23.10
2018-06-04T08:22:34.231Z,23.30
2018-06-04T08:25:02.883Z,23.40
2018-06-04T08:29:59.571Z,23.60
2018-06-04T08:32:28.066Z,23.70
2018-06-04T08:34:56.562Z,23.70
2018-06-04T08:37:25.015Z,23.70
2018-06-04T08:42:21.929Z,23.80
2018-06-04T08:44:51.024Z,23.90
2018-06-04T08:47:19.521Z,24.00
2018-06-04T08:49:47.975Z,24.10
2018-06-04T08:52:16.571Z,24.10
2018-06-04T08:54:45.075Z,24.00
2018-06-04T08:57:13.535Z,23.90
2018-06-04T08:59:42.019Z,23.90
2018-06-04T09:02:10.499Z,24.00
2018-06-04T09:04:39.097Z,24.10
2018-06-04T09:07:07.546Z,24.30
2018-06-04T09:14:32.413Z,24.70
2018-06-04T09:17:00.890Z,24.70
2018-06-04T09:21:57.483Z,24.70
2018-06-04T09:24:25.914Z,24.80
2018-06-04T09:26:54.446Z,24.90
2018-06-04T09:29:23.635Z,25.00
2018-06-04T09:31:52.260Z,25.10
2018-06-04T09:34:20.727Z,25.20
2018-06-04T09:36:49.190Z,25.20
2018-06-04T09:39:17.671Z,25.30
2018-06-04T09:44:14.356Z,25.40
2018-06-04T09:46:42.988Z,25.40
2018-06-04T09:49:11.451Z,25.40
2018-06-04T09:51:39.941Z,25.30
2018-06-04T09:54:08.482Z,25.40
2018-06-04T09:59:05.453Z,25.60
2018-06-04T10:01:34.021Z,25.60
2018-06-04T10:04:02.613Z,25.60
2018-06-04T10:11:27.564Z,25.80
2018-06-04T10:16:24.276Z,25.90
2018-06-04T10:18:52.712Z,26.00
2018-06-04T10:26:17.590Z,26.20
2018-06-04T10:28:46.073Z,26.20
2018-06-04T10:31:14.528Z,26.10
2018-06-04T10:36:11.204Z,26.20
2018-06-04T10:41:07.855Z,26.40
2018-06-04T10:46:04.613Z,26.50
2018-06-04T10:51:01.268Z,26.70
2018-06-04T10:53:29.888Z,26.70
2018-06-04T11:00:54.738Z,26.80
2018-06-04T11:03:23.187Z,26.90
2018-06-04T11:05:51.668Z,26.90
2018-06-04T11:08:20.177Z,26.80
2018-06-04T11:15:45.008Z,26.90
2018-06-04T11:20:41.676Z,27.10
2018-06-04T11:25:38.442Z,27.20
2018-06-04T11:28:06.930Z,27.20
2018-06-04T11:33:03.570Z,27.30
2018-06-04T11:35:32.214Z,27.20
2018-06-04T11:38:00.690Z,27.20
2018-06-04T11:40:29.198Z,27.30
2018-06-04T11:42:57.704Z,27.40
2018-06-04T11:45:26.169Z,27.40
2018-06-04T11:47:54.623Z,27.40
2018-06-04T11:52:51.312Z,27.50
2018-06-04T11:55:19.815Z,27.50
2018-06-04T11:57:48.385Z,27.60
2018-06-04T12:00:16.860Z,27.60
2018-06-04T12:02:45.321Z,27.60
2018-06-04T12:07:42.047Z,27.60
2018-06-04T12:10:10.488Z,27.60
2018-06-04T12:17:35.333Z,27.60
2018-06-04T12:20:03.860Z,27.60
2018-06-04T12:22:32.341Z,27.60
2018-06-04T12:25:00.789Z,27.60
2018-06-04T12:27:29.266Z,27.70
2018-06-04T12:32:25.876Z,27.60
2018-06-04T12:34:54.500Z,27.70
2018-06-04T12:37:22.982Z,27.60
2018-06-04T12:39:51.478Z,27.40
2018-06-04T12:44:48.105Z,27.40
2018-06-04T12:47:17.141Z,27.50
2018-06-04T12:52:13.829Z,27.50
2018-06-04T12:54:42.287Z,27.60
2018-06-04T12:59:38.921Z,27.60
2018-06-04T13:02:07.435Z,27.60
2018-06-04T13:07:04.127Z,27.40
2018-06-04T13:09:32.627Z,27.40
2018-06-04T13:12:01.089Z,27.50
2018-06-04T13:16:57.708Z,27.50
2018-06-04T13:19:26.165Z,27.50
2018-06-04T13:22:01.149Z,27.60
2018-06-04T13:24:29.660Z,27.70
2018-06-04T13:26:58.105Z,27.80
2018-06-04T13:29:26.588Z,27.90
2018-06-04T13:31:55.037Z,28.10
2018-06-04T13:34:23.504Z,28.20
2018-06-04T13:36:51.982Z,28.10
2018-06-04T13:41:48.656Z,27.90
2018-06-04T13:44:17.143Z,27.70
2018-06-04T13:46:45.622Z,27.80
2018-06-04T13:49:14.150Z,27.90
2018-06-04T13:51:43.328Z,28.00
2018-06-04T13:54:11.978Z,28.00
2018-06-04T13:59:08.599Z,28.20
2018-06-04T14:01:37.096Z,28.20
2018-06-04T14:04:05.593Z,28.10
2018-06-04T14:06:34.055Z,28.10
2018-06-04T14:09:02.545Z,28.10
2018-06-04T14:11:31.053Z,28.20
2018-06-04T14:13:59.502Z,28.20
2018-06-04T14:16:28.650Z,28.30
2018-06-04T14:21:25.319Z,28.30
2018-06-04T14:26:21.923Z,28.40
2018-06-04T14:28:51.121Z,28.40
2018-06-04T14:31:19.618Z,28.30
2018-06-04T14:33:48.163Z,28.40
2018-06-04T14:36:16.632Z,28.40
2018-06-04T14:38:45.117Z,28.40
2018-06-04T14:41:13.699Z,28.50
2018-06-04T14:43:42.192Z,28.50
2018-06-04T14:46:10.668Z,28.40
2018-06-04T14:48:39.154Z,28.40
2018-06-04T14:51:07.657Z,28.40
2018-06-04T14:56:04.352Z,28.30
2018-06-04T14:58:32.830Z,28.30
2018-06-04T15:01:01.342Z,28.20
2018-06-04T15:03:29.888Z,28.20
2018-06-04T15:08:26.892Z,28.20
2018-06-04T15:10:55.457Z,28.20
2018-06-04T15:15:52.399Z,28.10
2018-06-04T15:18:20.901Z,28.10
2018-06-04T15:23:17.600Z,27.90
2018-06-04T15:25:46.093Z,27.90
2018-06-04T15:28:14.589Z,27.90
2018-06-04T15:30:44.033Z,27.80
2018-06-04T15:33:12.509Z,27.80
2018-06-04T15:35:40.985Z,27.90
2018-06-04T15:38:09.477Z,27.90
2018-06-04T15:40:37.945Z,27.90
2018-06-04T15:43:06.431Z,27.80
2018-06-04T15:45:35.537Z,27.80
2018-06-04T15:48:04.048Z,27.70
2018-06-04T15:50:32.532Z,27.70
2018-06-04T15:53:01.011Z,27.70
2018-06-04T15:55:29.514Z,27.60
2018-06-04T16:00:26.278Z,27.60
2018-06-04T16:02:54.783Z,27.60
2018-06-04T16:07:51.475Z,27.70
2018-06-04T16:10:19.955Z,27.70
2018-06-04T16:12:48.428Z,27.60
2018-06-04T16:15:16.933Z,27.70
2018-06-04T16:17:45.398Z,27.60
2018-06-04T16:20:13.950Z,27.50
2018-06-04T16:22:42.451Z,27.50
2018-06-04T16:25:10.960Z,27.50
2018-06-04T16:27:39.517Z,27.50
2018-06-04T16:30:08.087Z,27.50
2018-06-04T16:32:36.616Z,27.40
2018-06-04T16:35:05.172Z,27.30
2018-06-04T16:37:34.984Z,27.20
2018-06-04T16:40:03.500Z,27.10
2018-06-04T16:45:00.254Z,27.10
2018-06-04T16:47:28.812Z,27.10
2018-06-04T16:49:57.292Z,27.10
2018-06-04T16:52:25.751Z,27.10
2018-06-04T16:54:54.227Z,27.10
2018-06-04T16:57:22.773Z,27.10
2018-06-04T17:02:19.526Z,27.00
2018-06-04T17:04:48.022Z,27.00
2018-06-04T17:07:16.550Z,27.00
2018-06-04T17:09:45.057Z,27.00
2018-06-04T17:12:13.619Z,26.90
2018-06-04T17:14:42.105Z,26.90
2018-06-04T17:17:10.679Z,26.80
2018-06-04T17:19:39.209Z,26.80
2018-06-04T17:22:07.753Z,26.70
2018-06-04T17:24:36.271Z,26.70
2018-06-04T17:27:04.819Z,26.60
2018-06-04T17:32:02.153Z,26.50
2018-06-04T17:34:30.651Z,26.40
2018-06-04T17:36:59.104Z,26.30
2018-06-04T17:39:27.584Z,26.30
2018-06-04T17:41:56.144Z,26.20
2018-06-04T17:46:53.100Z,26.10
2018-06-04T17:51:49.810Z,26.00
2018-06-04T17:54:18.321Z,26.00
2018-06-04T17:56:47.158Z,25.90
2018-06-04T18:01:44.903Z,25.80
2018-06-04T18:04:13.709Z,25.80
2018-06-04T18:09:10.535Z,25.70
2018-06-04T18:11:39.041Z,25.60
2018-06-04T18:14:07.707Z,25.50
2018-06-04T18:16:37.165Z,25.50
2018-06-04T18:19:06.337Z,25.40
2018-06-04T18:21:35.006Z,25.30
2018-06-04T18:24:03.628Z,25.30
2018-06-04T18:26:32.358Z,25.20
2018-06-04T18:31:29.476Z,25.10
2018-06-04T18:33:58.078Z,25.00
2018-06-04T18:36:26.668Z,24.90
2018-06-04T18:38:55.270Z,24.80
2018-06-04T18:41:24.173Z,24.80
2018-06-04T18:43:52.874Z,24.70
2018-06-04T18:46:21.387Z,24.60
2018-06-04T18:48:50.190Z,24.60
2018-06-04T18:51:18.989Z,24.50
2018-06-04T18:53:47.810Z,24.40
2018-06-04T18:56:16.578Z,24.40
2018-06-04T18:58:45.773Z,24.30
2018-06-04T19:01:14.594Z,24.20
2018-06-04T19:03:43.184Z,24.10
2018-06-04T19:06:11.998Z,24.00
2018-06-04T19:11:08.923Z,23.90
2018-06-04T19:13:37.543Z,23.80
2018-06-04T19:16:06.141Z,23.80
2018-06-04T19:18:34.811Z,23.70
2018-06-04T19:21:03.603Z,23.70
2018-06-04T19:23:32.418Z,23.60
2018-06-04T19:26:01.041Z,23.60
2018-06-04T19:28:29.636Z,23.50
2018-06-04T19:30:58.168Z,23.40
2018-06-04T19:33:26.820Z,23.40
2018-06-04T19:35:55.513Z,23.30
2018-06-04T19:38:24.145Z,23.30
2018-06-04T19:40:52.838Z,23.20
2018-06-04T19:43:21.802Z,23.20
2018-06-04T19:45:50.998Z,23.10
2018-06-04T19:48:20.312Z,23.10
2018-06-04T19:50:49.567Z,23.00
2018-06-04T19:53:18.610Z,23.00
2018-06-04T19:55:47.443Z,22.90
2018-06-04T19:58:16.228Z,22.90
2018-06-04T20:03:13.410Z,22.70
2018-06-04T20:08:10.793Z,22.50
2018-06-04T20:10:41.788Z,22.40
2018-06-04T20:13:10.657Z,22.40
2018-06-04T20:15:39.381Z,22.30
2018-06-04T20:18:08.310Z,22.30
2018-06-04T20:20:36.935Z,22.30
2018-06-04T20:25:33.792Z,22.20
2018-06-04T20:30:30.598Z,22.10
2018-06-04T20:32:59.168Z,22.00
2018-06-04T20:35:27.866Z,22.00
2018-06-04T20:37:56.465Z,21.80
2018-06-04T20:40:25.122Z,21.80
2018-06-04T20:42:53.639Z,21.80
2018-06-04T20:45:22.381Z,21.70
2018-06-04T20:47:51.171Z,21.70
2018-06-04T20:50:19.757Z,21.60
2018-06-04T20:52:48.239Z,21.50
2018-06-04T20:55:16.744Z,21.50
2018-06-04T21:00:13.482Z,21.40
2018-06-04T21:10:11.684Z,21.20
2018-06-04T21:12:40.196Z,21.20
2018-06-04T21:15:08.757Z,21.10
2018-06-04T21:17:37.228Z,21.10
2018-06-04T21:20:05.717Z,21.00
2018-06-04T21:22:34.206Z,21.00
2018-06-04T21:25:03.221Z,20.90
2018-06-04T21:27:31.722Z,20.80
2018-06-04T21:30:00.237Z,20.80
2018-06-04T21:32:28.726Z,20.80
2018-06-04T21:34:57.197Z,20.80
2018-06-04T21:39:53.846Z,20.70
2018-06-04T21:42:22.394Z,20.70
2018-06-04T21:44:50.924Z,20.60
2018-06-04T21:47:19.420Z,20.60
2018-06-04T21:49:47.895Z,20.60
2018-06-04T21:52:16.365Z,20.50
2018-06-04T21:54:45.117Z,20.50
2018-06-04T21:57:13.642Z,20.40
2018-06-04T21:59:42.169Z,20.40
2018-06-04T22:04:38.951Z,20.30
2018-06-04T22:09:36.501Z,20.20
2018-06-04T22:17:01.349Z,20.10
2018-06-04T22:19:29.799Z,20.10
2018-06-04T22:21:58.329Z,20.00
2018-06-04T22:26:54.952Z,20.00
2018-06-04T22:29:23.460Z,20.00
2018-06-04T22:31:51.913Z,20.00
2018-06-04T22:34:20.399Z,19.90
2018-06-04T22:36:48.892Z,19.90
2018-06-04T22:39:17.367Z,19.90
2018-06-04T22:41:45.850Z,19.90
2018-06-04T22:44:14.388Z,19.90
2018-06-04T22:49:10.961Z,19.80
2018-06-04T22:51:39.427Z,19.80
2018-06-04T22:54:07.879Z,19.70
2018-06-04T22:56:36.483Z,19.70
2018-06-04T22:59:04.976Z,19.70
2018-06-04T23:01:33.426Z,19.60
2018-06-04T23:04:02.183Z,19.60
2018-06-04T23:11:27.060Z,19.30
2018-06-04T23:13:55.546Z,19.30
2018-06-04T23:16:24.606Z,19.30
2018-06-04T23:18:53.098Z,19.20
2018-06-04T23:26:18.228Z,19.10
2018-06-04T23:28:46.665Z,19.10
2018-06-04T23:31:15.186Z,19.10
2018-06-04T23:33:43.709Z,18.90
2018-06-04T23:41:09.034Z,18.70
2018-06-04T23:43:37.485Z,18.60
2018-06-04T23:46:05.968Z,18.60
2018-06-04T23:48:34.519Z,18.60
2018-06-04T23:51:03.038Z,18.60
2018-06-04T23:53:31.590Z,18.50
2018-06-04T23:58:28.255Z,18.40
